createdAt,value
2018-12-08T00:00:46.908Z,25.8
2018-12-08T00:01:37.812Z,25.6
2018-12-08T00:02:26.908Z,25.4
2018-12-08T00:03:17.249Z,25.5
2018-12-08T00:04:07.505Z,25.6
2018-12-08T00:04:58.173Z,26.1
2018-12-08T00:05:47.685Z,26.8
2018-12-08T00:06:38.626Z,27.4
2018-12-08T00:24:50.205Z,29.4
2018-12-08T00:25:40.034Z,29.5
2018-12-08T00:26:30.634Z,29.4
2018-12-08T00:27:20.634Z,29.3
2018-12-08T00:28:09.920Z,29.1
2018-12-08T00:29:00.197Z,29
2018-12-08T00:29:51.082Z,28.8
2018-12-08T00:30:40.947Z,28.7
2018-12-08T00:31:31.174Z,28.6
2018-12-08T00:32:20.541Z,28.4
2018-12-08T00:33:10.205Z,28.3
2018-12-08T00:34:01.216Z,28.1
2018-12-08T00:34:51.431Z,27.9
2018-12-08T00:35:40.646Z,27.6
2018-12-08T00:36:30.434Z,26.6
2018-12-08T00:37:20.848Z,26.1
2018-12-08T00:38:10.548Z,25.7
2018-12-08T00:39:01.448Z,25.5
2018-12-08T00:39:51.553Z,25.4
2018-12-08T00:40:41.803Z,25.5
2018-12-08T00:41:31.035Z,25.8
2018-12-08T00:42:20.818Z,26.4
2018-12-08T00:43:10.640Z,27
2018-12-08T00:44:01.503Z,27.5
2018-12-08T00:44:50.999Z,27.3
2018-12-08T00:45:41.118Z,27.4
2018-12-08T00:46:31.755Z,27.4
2018-12-08T00:47:21.825Z,27.6
2018-12-08T00:48:11.238Z,27.7
2018-12-08T00:49:02.116Z,27.9
2018-12-08T00:49:50.330Z,28
2018-12-08T00:50:41.950Z,28.1
2018-12-08T00:51:32.266Z,28.3
2018-12-08T00:52:21.238Z,28.4
2018-12-08T00:53:11.682Z,28.4
2018-12-08T00:54:01.910Z,28.6
2018-12-08T00:54:52.301Z,28.6
2018-12-08T00:55:42.365Z,28.7
2018-12-08T00:56:32.115Z,28.8
2018-12-08T00:57:22.120Z,28.9
2018-12-08T00:58:12.590Z,28.9
2018-12-08T00:59:02.238Z,29
2018-12-08T00:59:52.647Z,29
2018-12-08T01:00:42.597Z,29.1
2018-12-08T01:01:31.316Z,29.1
2018-12-08T01:02:23.728Z,29.2
2018-12-08T01:03:12.847Z,29.3
2018-12-08T01:04:01.603Z,29.3
2018-12-08T01:04:52.944Z,29.3
2018-12-08T01:05:42.654Z,29.4
2018-12-08T01:06:32.227Z,29.4
2018-12-08T01:07:23.112Z,29.4
2018-12-08T01:08:12.634Z,29.4
2018-12-08T01:09:02.934Z,29.5
2018-12-08T01:09:53.577Z,29.5
2018-12-08T01:10:44.101Z,29.4
2018-12-08T01:11:32.843Z,29.3
2018-12-08T01:12:22.827Z,29.1
2018-12-08T01:13:14.038Z,28.9
2018-12-08T01:14:03.276Z,28.8
2018-12-08T01:14:53.401Z,28.6
2018-12-08T01:15:43.956Z,28.5
2018-12-08T01:16:33.533Z,28.3
2018-12-08T01:17:23.906Z,28.2
2018-12-08T01:18:13.046Z,28.1
2018-12-08T01:19:04.156Z,27.9
2018-12-08T01:19:54.586Z,26.9
2018-12-08T01:20:44.258Z,26.3
2018-12-08T01:21:34.126Z,25.9
2018-12-08T01:22:24.238Z,25.7
2018-12-08T01:23:14.456Z,25.4
2018-12-08T01:24:04.191Z,25.4
2018-12-08T01:24:53.295Z,25.6
2018-12-08T01:25:44.486Z,25.8
2018-12-08T01:26:35.258Z,26.4
2018-12-08T01:27:23.918Z,27
2018-12-08T01:28:14.855Z,27.6
2018-12-08T01:29:04.310Z,27.4
2018-12-08T01:29:54.067Z,27.3
2018-12-08T01:30:44.777Z,27.4
2018-12-08T01:31:33.507Z,27.5
2018-12-08T01:32:23.995Z,27.6
2018-12-08T01:34:04.682Z,27.9
2018-12-08T01:34:54.826Z,28
2018-12-08T01:35:45.284Z,28.1
2018-12-08T01:36:34.432Z,28.2
2018-12-08T01:37:23.266Z,28.3
2018-12-08T01:38:14.776Z,28.4
2018-12-08T01:39:05.296Z,28.5
2018-12-08T01:39:55.024Z,28.5
2018-12-08T01:40:45.062Z,28.6
2018-12-08T01:41:36.659Z,28.7
2018-12-08T01:42:25.348Z,28.8
2018-12-08T01:43:15.563Z,28.8
2018-12-08T01:44:05.593Z,28.8
2018-12-08T01:44:55.923Z,28.9
2018-12-08T01:45:44.950Z,28.9
2018-12-08T01:46:35.455Z,28.9
2018-12-08T01:47:25.275Z,29
2018-12-08T01:48:15.140Z,29.1
2018-12-08T01:49:04.665Z,29.1
2018-12-08T01:49:55.210Z,29.1
2018-12-08T01:50:45.762Z,29.2
2018-12-08T01:51:35.890Z,29.2
2018-12-08T01:52:25.600Z,29.3
2018-12-08T01:53:15.945Z,29.3
2018-12-08T01:54:06.292Z,29.2
2018-12-08T01:54:56.427Z,29.1
2018-12-08T01:55:44.789Z,28.4
2018-12-08T01:56:36.529Z,27.6
2018-12-08T01:57:26.784Z,26.9
2018-12-08T01:58:16.569Z,26.1
2018-12-08T01:59:05.887Z,25.1
2018-12-08T01:59:56.376Z,24.3
2018-12-08T02:00:46.182Z,23.8
2018-12-08T02:01:36.329Z,23.8
2018-12-08T02:02:26.841Z,24.3
2018-12-08T02:03:16.909Z,25.1
2018-12-08T02:04:06.259Z,25.9
2018-12-08T02:04:57.559Z,26.7
2018-12-08T02:05:45.981Z,27.2
2018-12-08T02:06:38.481Z,27.2
2018-12-08T02:07:27.174Z,27.3
2018-12-08T02:08:16.234Z,27.3
2018-12-08T02:09:06.571Z,27.4
2018-12-08T02:09:56.988Z,27.7
2018-12-08T02:10:46.953Z,27.9
2018-12-08T02:11:37.259Z,28
2018-12-08T02:12:27.511Z,28.2
2018-12-08T02:13:16.778Z,28.3
2018-12-08T02:14:07.743Z,28.4
2018-12-08T02:14:57.206Z,28.6
2018-12-08T02:15:46.200Z,28.7
2018-12-08T02:16:37.981Z,28.8
2018-12-08T02:17:27.093Z,28.9
2018-12-08T02:18:16.625Z,28.9
2018-12-08T02:19:07.243Z,29.1
2018-12-08T02:19:56.030Z,29.1
2018-12-08T02:20:47.487Z,29.2
2018-12-08T02:21:36.850Z,29.3
2018-12-08T02:22:27.596Z,29.4
2018-12-08T02:23:17.812Z,29.4
2018-12-08T02:24:07.389Z,29.5
2018-12-08T02:24:57.747Z,29.4
2018-12-08T02:25:46.975Z,29.3
2018-12-08T02:26:37.609Z,29.1
2018-12-08T02:27:27.827Z,29
2018-12-08T02:28:18.126Z,28.9
2018-12-08T02:29:07.719Z,28.7
2018-12-08T02:29:58.364Z,28.6
2018-12-08T02:30:48.059Z,28.4
2018-12-08T02:31:38.698Z,28.3
2018-12-08T02:32:28.858Z,28.1
2018-12-08T02:33:21.940Z,27.9
2018-12-08T02:34:08.895Z,27.8
2018-12-08T02:34:57.643Z,26.6
2018-12-08T02:35:47.688Z,26.1
2018-12-08T02:36:38.936Z,25.8
2018-12-08T02:37:28.488Z,25.5
2018-12-08T02:38:17.831Z,25.4
2018-12-08T02:39:08.781Z,25.6
2018-12-08T02:39:58.738Z,25.8
2018-12-08T02:40:49.938Z,26.3
2018-12-08T02:41:39.397Z,27
2018-12-08T02:42:28.660Z,27.5
2018-12-08T02:43:19.740Z,27.3
2018-12-08T02:44:10.096Z,27.4
2018-12-08T02:44:59.530Z,27.4
2018-12-08T02:45:49.937Z,27.6
2018-12-08T02:46:38.705Z,27.8
2018-12-08T02:47:28.958Z,27.9
2018-12-08T02:48:19.783Z,28
2018-12-08T02:49:10.218Z,28.1
2018-12-08T02:49:59.314Z,28.3
2018-12-08T02:50:49.660Z,28.4
2018-12-08T02:51:40.223Z,28.4
2018-12-08T02:52:30.348Z,28.6
2018-12-08T02:53:20.175Z,28.6
2018-12-08T02:54:10.674Z,28.8
2018-12-08T02:55:00.290Z,28.8
2018-12-08T02:55:50.543Z,28.9
2018-12-08T02:56:40.523Z,28.9
2018-12-08T02:57:30.124Z,29
2018-12-08T02:58:21.088Z,29.1
2018-12-08T02:59:10.057Z,29.1
2018-12-08T03:00:00.639Z,29.2
2018-12-08T03:00:50.089Z,29.3
2018-12-08T03:01:40.446Z,29.3
2018-12-08T03:02:29.912Z,29.3
2018-12-08T03:03:20.826Z,29.4
2018-12-08T03:04:11.652Z,29.4
2018-12-08T03:05:01.239Z,29.5
2018-12-08T03:05:51.100Z,29.5
2018-12-08T03:06:40.323Z,29.4
2018-12-08T03:07:30.441Z,29.2
2018-12-08T03:08:20.754Z,29.1
2018-12-08T03:09:12.208Z,28.9
2018-12-08T03:10:00.698Z,28.8
2018-12-08T03:10:50.864Z,28.6
2018-12-08T03:11:41.403Z,28.4
2018-12-08T03:12:31.266Z,28.3
2018-12-08T03:13:22.057Z,28.1
2018-12-08T03:14:11.030Z,28
2018-12-08T03:15:01.607Z,27.4
2018-12-08T03:15:51.197Z,26.6
2018-12-08T03:16:41.796Z,26.1
2018-12-08T03:17:32.438Z,25.8
2018-12-08T03:18:22.048Z,25.6
2018-12-08T03:19:12.449Z,25.4
2018-12-08T03:20:02.203Z,25.5
2018-12-08T03:20:52.076Z,25.6
2018-12-08T03:21:42.317Z,26.1
2018-12-08T03:22:32.903Z,26.7
2018-12-08T03:23:22.562Z,27.3
2018-12-08T03:24:12.492Z,27.5
2018-12-08T03:25:02.267Z,27.4
2018-12-08T03:25:52.913Z,27.4
2018-12-08T03:26:42.619Z,27.5
2018-12-08T03:27:33.268Z,27.6
2018-12-08T03:28:23.056Z,27.8
2018-12-08T03:29:12.061Z,27.9
2018-12-08T03:30:01.953Z,28
2018-12-08T03:30:54.612Z,28.1
2018-12-08T03:31:43.154Z,28.3
2018-12-08T03:32:32.520Z,28.3
2018-12-08T03:33:23.052Z,28.4
2018-12-08T03:34:13.330Z,28.6
2018-12-08T03:35:02.480Z,28.6
2018-12-08T03:35:53.015Z,28.7
2018-12-08T03:36:42.586Z,28.8
2018-12-08T03:37:32.868Z,28.8
2018-12-08T03:38:23.499Z,28.9
2018-12-08T03:39:13.810Z,28.9
2018-12-08T03:40:03.945Z,29
2018-12-08T03:40:54.231Z,29.1
2018-12-08T03:41:42.895Z,29.1
2018-12-08T03:42:32.377Z,29.1
2018-12-08T03:43:23.052Z,29.2
2018-12-08T03:44:13.964Z,29.3
2018-12-08T03:45:03.488Z,29.3
2018-12-08T03:45:53.973Z,29.3
2018-12-08T03:46:43.787Z,29.4
2018-12-08T03:47:33.292Z,29.4
2018-12-08T03:48:23.644Z,29.4
2018-12-08T03:49:14.542Z,29.4
2018-12-08T03:50:03.859Z,29.5
2018-12-08T03:50:54.481Z,29.5
2018-12-08T03:51:44.630Z,29.5
2018-12-08T03:52:34.810Z,29.3
2018-12-08T03:53:24.274Z,29.1
2018-12-08T03:54:14.374Z,29
2018-12-08T03:55:03.861Z,28.8
2018-12-08T03:55:54.213Z,28.7
2018-12-08T03:56:43.458Z,28.5
2018-12-08T03:57:34.742Z,28.4
2018-12-08T03:58:23.819Z,28.3
2018-12-08T03:59:14.929Z,28.1
2018-12-08T04:00:05.281Z,27.9
2018-12-08T04:00:54.329Z,27.1
2018-12-08T04:01:45.154Z,26.4
2018-12-08T04:02:35.314Z,26
2018-12-08T04:03:24.340Z,25.8
2018-12-08T04:04:15.532Z,25.6
2018-12-08T04:05:05.045Z,25.4
2018-12-08T04:05:55.158Z,25.5
2018-12-08T04:06:44.118Z,25.6
2018-12-08T04:07:35.823Z,26.1
2018-12-08T04:08:25.251Z,26.6
2018-12-08T04:09:15.873Z,27.2
2018-12-08T04:10:07.254Z,27.7
2018-12-08T04:10:55.947Z,27.4
2018-12-08T04:11:46.052Z,27.4
2018-12-08T04:12:35.781Z,27.4
2018-12-08T04:13:25.599Z,27.6
2018-12-08T04:14:14.568Z,27.7
2018-12-08T04:15:55.455Z,27.9
2018-12-08T04:16:45.582Z,28
2018-12-08T04:17:36.210Z,28.1
2018-12-08T04:18:26.265Z,28.3
2018-12-08T04:19:15.940Z,28.3
2018-12-08T04:20:05.912Z,28.4
2018-12-08T04:20:56.472Z,28.4
2018-12-08T04:21:46.422Z,28.5
2018-12-08T04:22:36.785Z,28.6
2018-12-08T04:23:26.346Z,28.6
2018-12-08T04:24:17.170Z,28.7
2018-12-08T04:25:06.609Z,28.8
2018-12-08T04:25:57.190Z,28.8
2018-12-08T04:26:46.225Z,28.8
2018-12-08T04:27:35.709Z,28.9
2018-12-08T04:28:26.577Z,28.3
2018-12-08T04:29:16.498Z,27.4
2018-12-08T04:30:07.049Z,26.7
2018-12-08T04:30:58.299Z,25.9
2018-12-08T04:31:47.999Z,25
2018-12-08T04:32:36.669Z,24.1
2018-12-08T04:33:27.265Z,23.4
2018-12-08T04:34:16.796Z,23.4
2018-12-08T04:35:07.216Z,23.8
2018-12-08T04:35:58.804Z,24.6
2018-12-08T04:36:46.353Z,25.4
2018-12-08T04:54:06.243Z,29
2018-12-08T04:54:56.117Z,29.2
2018-12-08T04:55:45.312Z,29.2
2018-12-08T04:56:35.425Z,29.3
2018-12-08T04:57:25.481Z,29.4
2018-12-08T04:58:15.761Z,29.4
2018-12-08T04:59:06.082Z,29.4
2018-12-08T04:59:55.857Z,29.4
2018-12-08T05:00:46.201Z,29.3
2018-12-08T05:01:36.282Z,29.1
2018-12-08T05:02:26.745Z,29
2018-12-08T05:03:15.528Z,28.8
2018-12-08T05:04:05.790Z,28.7
2018-12-08T05:04:56.262Z,28.6
2018-12-08T05:05:46.246Z,28.4
2018-12-08T05:06:36.311Z,28.3
2018-12-08T05:07:27.161Z,28.1
2018-12-08T05:08:16.688Z,27.9
2018-12-08T05:09:56.741Z,26.6
2018-12-08T05:10:46.866Z,26
2018-12-08T05:11:36.736Z,25.7
2018-12-08T05:12:27.222Z,25.4
2018-12-08T05:13:16.771Z,25.3
2018-12-08T05:14:06.803Z,25.5
2018-12-08T05:14:57.163Z,25.8
2018-12-08T05:15:46.723Z,26.3
2018-12-08T05:16:37.533Z,26.9
2018-12-08T05:17:26.196Z,27.5
2018-12-08T05:18:16.525Z,27.3
2018-12-08T05:19:07.954Z,27.3
2018-12-08T05:19:57.210Z,27.4
2018-12-08T05:20:48.132Z,27.5
2018-12-08T05:21:37.584Z,27.6
2018-12-08T05:22:27.935Z,27.8
2018-12-08T05:23:17.530Z,27.9
2018-12-08T05:24:07.170Z,28
2018-12-08T05:24:57.398Z,28.1
2018-12-08T05:25:48.361Z,28.3
2018-12-08T05:26:38.057Z,28.3
2018-12-08T05:27:27.745Z,28.4
2018-12-08T05:28:17.493Z,28.5
2018-12-08T05:29:07.840Z,28.6
2018-12-08T05:29:57.698Z,28.6
2018-12-08T05:30:48.285Z,28.8
2018-12-08T05:31:38.013Z,28.8
2018-12-08T05:32:28.172Z,28.9
2018-12-08T05:33:17.833Z,28.9
2018-12-08T05:34:08.465Z,29
2018-12-08T05:34:58.287Z,29.1
2018-12-08T05:35:48.058Z,29.1
2018-12-08T05:36:38.960Z,29.1
2018-12-08T05:37:28.532Z,29.2
2018-12-08T05:38:17.960Z,29.3
2018-12-08T05:39:08.408Z,29.3
2018-12-08T05:39:58.750Z,29.3
2018-12-08T05:40:48.721Z,29.4
2018-12-08T05:41:38.177Z,29.4
2018-12-08T05:42:28.619Z,29.4
2018-12-08T05:43:18.339Z,29.4
2018-12-08T05:44:09.025Z,29.5
2018-12-08T05:44:58.709Z,29.5
2018-12-08T05:45:48.500Z,29.4
2018-12-08T05:46:38.960Z,29.3
2018-12-08T05:47:29.155Z,29.1
2018-12-08T05:48:19.147Z,28.9
2018-12-08T05:49:09.639Z,28.8
2018-12-08T05:49:59.245Z,28.6
2018-12-08T05:50:49.417Z,28.5
2018-12-08T05:51:40.085Z,28.3
2018-12-08T05:52:29.742Z,28.2
2018-12-08T05:53:20.300Z,28.1
2018-12-08T05:54:09.554Z,27.9
2018-12-08T05:54:59.433Z,27.4
2018-12-08T05:55:49.922Z,26.5
2018-12-08T05:56:39.789Z,26
2018-12-08T05:57:29.857Z,25.7
2018-12-08T05:58:19.787Z,25.4
2018-12-08T05:59:09.347Z,25.4
2018-12-08T06:00:00.215Z,25.5
2018-12-08T06:00:49.711Z,25.7
2018-12-08T06:01:41.449Z,26.3
2018-12-08T06:02:30.096Z,26.7
2018-12-08T06:03:20.697Z,26.8
2018-12-08T06:04:10.215Z,26.9
2018-12-08T06:05:00.018Z,26.9
2018-12-08T06:05:50.321Z,27.1
2018-12-08T06:06:41.168Z,27.3
2018-12-08T06:07:30.161Z,27.4
2018-12-08T06:08:20.496Z,27.6
2018-12-08T06:09:10.843Z,27.8
2018-12-08T06:10:00.877Z,27.9
2018-12-08T06:10:50.466Z,28
2018-12-08T06:11:41.947Z,28.1
2018-12-08T06:12:31.081Z,28.2
2018-12-08T06:13:20.839Z,28.3
2018-12-08T06:14:11.171Z,28.4
2018-12-08T06:15:01.533Z,28.4
2018-12-08T06:15:50.736Z,28.6
2018-12-08T06:16:41.638Z,28.6
2018-12-08T06:17:31.423Z,28.7
2018-12-08T06:18:22.020Z,28.8
2018-12-08T06:19:10.395Z,28.8
2018-12-08T06:20:01.126Z,28.9
2018-12-08T06:20:51.358Z,28.9
2018-12-08T06:21:42.265Z,29
2018-12-08T06:22:31.625Z,29
2018-12-08T06:23:21.233Z,29.1
2018-12-08T06:24:10.492Z,29.1
2018-12-08T06:25:02.026Z,29.1
2018-12-08T06:25:52.237Z,29.2
2018-12-08T06:26:42.184Z,29.2
2018-12-08T06:27:32.925Z,29.3
2018-12-08T06:28:21.595Z,29.3
2018-12-08T06:29:11.888Z,29.4
2018-12-08T06:30:01.394Z,29.4
2018-12-08T06:30:52.427Z,29.4
2018-12-08T06:31:41.919Z,29.4
2018-12-08T06:32:32.664Z,29.5
2018-12-08T06:33:21.679Z,29.5
2018-12-08T06:34:12.242Z,29.3
2018-12-08T06:35:02.256Z,29.2
2018-12-08T06:35:52.911Z,29
2018-12-08T06:36:43.074Z,28.9
2018-12-08T06:37:32.201Z,28.7
2018-12-08T06:38:22.678Z,28.6
2018-12-08T06:39:12.845Z,28.4
2018-12-08T06:40:03.708Z,28.3
2018-12-08T06:40:52.957Z,28.1
2018-12-08T06:41:41.671Z,28
2018-12-08T06:43:22.366Z,26.5
2018-12-08T06:44:12.680Z,25.6
2018-12-08T06:45:03.597Z,25.3
2018-12-08T06:45:52.816Z,25.4
2018-12-08T06:46:43.716Z,25.7
2018-12-08T06:47:32.871Z,26.3
2018-12-08T06:48:23.004Z,26.8
2018-12-08T06:49:13.124Z,27.1
2018-12-08T06:50:03.314Z,27.1
2018-12-08T06:50:52.656Z,27.2
2018-12-08T06:51:44.293Z,27.3
2018-12-08T06:52:33.350Z,27.4
2018-12-08T06:53:23.411Z,27.6
2018-12-08T06:54:13.901Z,27.7
2018-12-08T06:55:53.455Z,28.1
2018-12-08T06:56:43.354Z,27.9
2018-12-08T06:57:33.186Z,27.3
2018-12-08T06:58:24.234Z,26.6
2018-12-08T06:59:14.436Z,25.8
2018-12-08T07:00:03.504Z,24.9
2018-12-08T07:00:53.426Z,24.1
2018-12-08T07:01:44.269Z,23.1
2018-12-08T07:02:33.435Z,22.7
2018-12-08T07:03:24.610Z,22.8
2018-12-08T07:04:14.381Z,23.3
2018-12-08T07:05:04.126Z,24.1
2018-12-08T07:05:54.193Z,25
2018-12-08T07:06:44.585Z,25.8
2018-12-08T07:07:34.532Z,26.5
2018-12-08T07:08:25.245Z,27.2
2018-12-08T07:09:14.888Z,27.4
2018-12-08T07:10:04.543Z,27.3
2018-12-08T07:10:55.366Z,27.3
2018-12-08T07:11:44.908Z,27.4
2018-12-08T07:12:37.780Z,27.5
2018-12-08T07:13:24.071Z,27.7
2018-12-08T07:15:05.700Z,27.9
2018-12-08T07:15:55.680Z,28.1
2018-12-08T07:16:44.720Z,28.3
2018-12-08T07:17:34.447Z,28.3
2018-12-08T07:18:27.817Z,28.4
2018-12-08T07:19:15.368Z,28.6
2018-12-08T07:20:05.502Z,28.7
2018-12-08T07:20:54.884Z,28.8
2018-12-08T07:21:45.784Z,28.9
2018-12-08T07:22:35.517Z,28.9
2018-12-08T07:23:26.170Z,29.1
2018-12-08T07:24:15.356Z,29.1
2018-12-08T07:25:05.432Z,29.2
2018-12-08T07:25:56.676Z,29.3
2018-12-08T07:26:45.404Z,29.4
2018-12-08T07:27:35.621Z,29.4
2018-12-08T07:28:28.482Z,29.4
2018-12-08T07:29:16.801Z,29.3
2018-12-08T07:30:05.896Z,29.1
2018-12-08T07:30:56.886Z,29
2018-12-08T07:31:47.036Z,28.8
2018-12-08T07:32:44.539Z,28.7
2018-12-08T07:33:25.684Z,28.5
2018-12-08T07:34:16.079Z,28.4
2018-12-08T07:35:06.159Z,28.3
2018-12-08T07:35:55.919Z,28.1
2018-12-08T07:36:46.546Z,27.9
2018-12-08T07:37:36.233Z,27.8
2018-12-08T07:38:26.911Z,26.8
2018-12-08T07:39:16.625Z,26.1
2018-12-08T07:40:06.756Z,25.8
2018-12-08T07:40:56.521Z,25.5
2018-12-08T07:41:47.174Z,25.3
2018-12-08T07:42:36.339Z,25.1
2018-12-08T07:43:26.428Z,25
2018-12-08T07:44:17.841Z,24.9
2018-12-08T07:45:07.353Z,24.8
2018-12-08T07:45:57.428Z,24.6
2018-12-08T07:46:47.450Z,24.7
2018-12-08T07:47:37.607Z,24.9
2018-12-08T07:48:27.010Z,25.3
2018-12-08T07:49:16.892Z,26
2018-12-08T07:50:06.939Z,26.8
2018-12-08T07:50:56.993Z,27.2
2018-12-08T07:51:47.298Z,27.1
2018-12-08T07:52:37.125Z,27.1
2018-12-08T07:53:28.265Z,27.3
2018-12-08T07:54:16.969Z,27.4
2018-12-08T07:55:07.554Z,27.6
2018-12-08T07:55:57.421Z,27.7
2018-12-08T07:56:48.447Z,27.9
2018-12-08T07:57:37.385Z,28
2018-12-08T07:58:27.712Z,28.1
2018-12-08T07:59:17.499Z,28.3
2018-12-08T08:00:10.113Z,28.4
2018-12-08T08:00:58.534Z,28.5
2018-12-08T08:01:49.832Z,28.6
2018-12-08T08:02:38.103Z,28.7
2018-12-08T08:03:27.216Z,28.8
2018-12-08T08:04:17.797Z,28.9
2018-12-08T08:05:09.626Z,29
2018-12-08T08:05:59.169Z,29.1
2018-12-08T08:06:49.128Z,29.2
2018-12-08T08:07:38.883Z,29.3
2018-12-08T08:08:28.928Z,29.3
2018-12-08T08:09:18.774Z,29.4
2018-12-08T08:10:07.548Z,29.5
2018-12-08T08:10:59.748Z,29.4
2018-12-08T08:11:49.728Z,29.3
2018-12-08T08:12:39.525Z,29.1
2018-12-08T08:13:28.999Z,29
2018-12-08T08:14:19.396Z,28.8
2018-12-08T08:15:09.235Z,28.7
2018-12-08T08:15:58.711Z,28.6
2018-12-08T08:16:49.516Z,28.4
2018-12-08T08:17:39.823Z,28.3
2018-12-08T08:18:29.876Z,28.1
2018-12-08T08:19:19.930Z,27.9
2018-12-08T08:20:09.281Z,26.8
2018-12-08T08:21:00.167Z,26.3
2018-12-08T08:21:49.577Z,25.9
2018-12-08T08:22:40.451Z,25.7
2018-12-08T08:23:30.273Z,25.5
2018-12-08T08:24:19.042Z,25.4
2018-12-08T08:25:09.777Z,25.3
2018-12-08T08:25:59.399Z,25.1
2018-12-08T08:26:50.020Z,24.9
2018-12-08T08:27:40.204Z,24.8
2018-12-08T08:28:30.182Z,24.7
2018-12-08T08:29:20.074Z,24.8
2018-12-08T08:30:10.133Z,25
2018-12-08T08:30:59.933Z,25.4
2018-12-08T08:31:52.337Z,26.1
2018-12-08T08:32:39.752Z,26.8
2018-12-08T08:33:30.964Z,27.4
2018-12-08T08:34:20.459Z,27.3
2018-12-08T08:35:10.629Z,27.3
2018-12-08T08:36:00.335Z,27.4
2018-12-08T08:36:50.571Z,27.4
2018-12-08T08:37:41.001Z,27.6
2018-12-08T08:38:31.096Z,27.8
2018-12-08T08:39:19.991Z,27.9
2018-12-08T08:40:11.486Z,28.1
2018-12-08T08:41:00.866Z,28.2
2018-12-08T08:41:49.833Z,28.3
2018-12-08T08:42:40.693Z,28.4
2018-12-08T08:43:30.749Z,28.6
2018-12-08T08:44:21.366Z,28.7
2018-12-08T08:45:10.629Z,28.8
2018-12-08T08:46:01.296Z,28.9
2018-12-08T08:46:51.039Z,28.9
2018-12-08T08:47:41.406Z,29
2018-12-08T08:48:31.991Z,29.1
2018-12-08T08:49:21.716Z,29.2
2018-12-08T08:50:13.865Z,29.3
2018-12-08T08:51:01.545Z,29.3
2018-12-08T08:51:51.355Z,29.4
2018-12-08T08:52:41.686Z,29.4
2018-12-08T09:08:28.502Z,25.2
2018-12-08T09:09:19.290Z,25
2018-12-08T09:10:08.647Z,24.9
2018-12-08T09:10:58.275Z,24.8
2018-12-08T09:11:48.905Z,24.6
2018-12-08T09:12:37.832Z,24.8
2018-12-08T09:13:29.247Z,25
2018-12-08T09:14:22.968Z,25.5
2018-12-08T09:15:08.577Z,26.3
2018-12-08T09:15:59.232Z,26.9
2018-12-08T09:16:49.629Z,27.3
2018-12-08T09:17:39.140Z,27.1
2018-12-08T09:18:29.777Z,27.2
2018-12-08T09:19:19.127Z,27.3
2018-12-08T09:20:08.739Z,27.4
2018-12-08T09:20:59.252Z,27.6
2018-12-08T09:21:49.022Z,27.8
2018-12-08T09:22:38.306Z,27.9
2018-12-08T09:23:29.774Z,28.1
2018-12-08T09:24:19.451Z,28.1
2018-12-08T09:25:09.821Z,28.3
2018-12-08T09:26:00.117Z,28.4
2018-12-08T09:26:49.921Z,28.5
2018-12-08T09:27:39.954Z,28.6
2018-12-08T09:28:30.557Z,28.7
2018-12-08T09:29:19.531Z,28.8
2018-12-08T09:30:09.711Z,28.9
2018-12-08T09:30:58.684Z,29
2018-12-08T09:31:49.579Z,29.1
2018-12-08T09:32:39.281Z,29.1
2018-12-08T09:33:30.320Z,29.2
2018-12-08T09:34:20.112Z,29.3
2018-12-08T09:35:10.020Z,29.3
2018-12-08T09:36:01.066Z,29.4
2018-12-08T09:36:50.687Z,29.5
2018-12-08T09:37:39.691Z,29.4
2018-12-08T09:38:30.568Z,29.3
2018-12-08T09:39:20.743Z,29.2
2018-12-08T09:40:10.293Z,29
2018-12-08T09:41:00.733Z,28.9
2018-12-08T09:41:51.208Z,28.7
2018-12-08T09:42:40.255Z,28.6
2018-12-08T09:43:31.065Z,28.4
2018-12-08T09:44:20.858Z,28.3
2018-12-08T09:45:10.647Z,28.1
2018-12-08T09:46:01.503Z,28
2018-12-08T09:46:50.250Z,27.6
2018-12-08T09:47:41.078Z,26.6
2018-12-08T09:48:30.850Z,26.1
2018-12-08T09:49:21.533Z,25.8
2018-12-08T09:50:11.851Z,25.5
2018-12-08T09:51:01.838Z,25.3
2018-12-08T09:51:50.530Z,25.2
2018-12-08T09:52:40.685Z,25.1
2018-12-08T09:53:31.745Z,24.9
2018-12-08T09:54:22.077Z,24.8
2018-12-08T09:55:12.253Z,24.7
2018-12-08T09:56:02.817Z,24.7
2018-12-08T09:56:51.723Z,24.9
2018-12-08T09:57:41.760Z,25.3
2018-12-08T09:58:31.952Z,25.9
2018-12-08T09:59:22.406Z,26.6
2018-12-08T10:00:12.226Z,27.2
2018-12-08T10:01:02.352Z,27.1
2018-12-08T10:01:52.580Z,27.1
2018-12-08T10:02:41.976Z,27.2
2018-12-08T10:03:31.378Z,27.5
2018-12-08T10:04:21.727Z,27.8
2018-12-08T10:05:11.399Z,27.4
2018-12-08T10:06:02.754Z,26.7
2018-12-08T10:06:52.004Z,25.9
2018-12-08T10:07:42.712Z,25.3
2018-12-08T10:08:32.572Z,24.3
2018-12-08T10:09:23.348Z,23.3
2018-12-08T10:10:12.572Z,22.7
2018-12-08T10:11:03.022Z,22.6
2018-12-08T10:11:52.429Z,23
2018-12-08T10:12:42.501Z,23.9
2018-12-08T10:13:32.435Z,24.8
2018-12-08T10:14:23.529Z,25.7
2018-12-08T10:15:12.745Z,26.6
2018-12-08T10:16:03.321Z,26.8
2018-12-08T10:16:53.629Z,26.8
2018-12-08T10:17:43.648Z,26.9
2018-12-08T10:18:33.506Z,27
2018-12-08T10:19:23.578Z,27.2
2018-12-08T10:20:13.289Z,27.4
2018-12-08T10:21:03.130Z,27.6
2018-12-08T10:21:53.338Z,27.8
2018-12-08T10:22:44.018Z,27.9
2018-12-08T10:23:33.558Z,28.1
2018-12-08T10:24:23.596Z,28.3
2018-12-08T10:25:14.086Z,28.4
2018-12-08T10:26:03.944Z,28.5
2018-12-08T10:26:53.519Z,28.6
2018-12-08T10:27:45.810Z,28.8
2018-12-08T10:28:34.138Z,28.9
2018-12-08T10:29:22.794Z,29
2018-12-08T10:30:14.131Z,29.1
2018-12-08T10:31:03.448Z,29.2
2018-12-08T10:31:54.307Z,29.3
2018-12-08T10:32:43.836Z,29.4
2018-12-08T10:33:36.709Z,29.4
2018-12-08T10:34:24.583Z,29.5
2018-12-08T10:35:14.675Z,29.5
2018-12-08T10:36:04.363Z,29.3
2018-12-08T10:36:54.967Z,29.2
2018-12-08T10:37:44.743Z,29
2018-12-08T10:38:34.804Z,28.9
2018-12-08T10:39:24.900Z,28.8
2018-12-08T10:40:15.240Z,28.6
2018-12-08T10:41:05.292Z,28.4
2018-12-08T10:41:55.030Z,28.3
2018-12-08T10:42:45.065Z,28.1
2018-12-08T10:43:34.845Z,28
2018-12-08T10:44:24.355Z,27.1
2018-12-08T10:45:15.082Z,26.3
2018-12-08T10:46:05.025Z,25.9
2018-12-08T10:46:55.427Z,25.6
2018-12-08T10:47:45.247Z,25.4
2018-12-08T10:48:34.845Z,25.3
2018-12-08T10:49:24.607Z,25.1
2018-12-08T10:50:15.764Z,25
2018-12-08T10:51:05.629Z,24.8
2018-12-08T10:51:55.809Z,24.7
2018-12-08T10:52:45.525Z,24.6
2018-12-08T10:53:36.069Z,24.8
2018-12-08T10:54:26.811Z,25.1
2018-12-08T10:55:15.537Z,25.7
2018-12-08T10:56:06.046Z,26.4
2018-12-08T10:56:55.757Z,27.1
2018-12-08T10:57:46.429Z,26.9
2018-12-08T10:58:35.328Z,27.1
2018-12-08T10:59:26.204Z,27.1
2018-12-08T11:00:16.662Z,27.3
2018-12-08T11:01:07.181Z,27.5
2018-12-08T11:01:56.761Z,27.7
2018-12-08T11:02:46.959Z,27.9
2018-12-08T11:03:36.471Z,28
2018-12-08T11:04:27.073Z,28.1
2018-12-08T11:05:16.091Z,28.3
2018-12-08T11:06:06.876Z,28.4
2018-12-08T11:06:56.230Z,28.6
2018-12-08T11:07:45.647Z,28.7
2018-12-08T11:08:36.605Z,28.8
2018-12-08T11:09:26.388Z,28.9
2018-12-08T11:10:16.526Z,29
2018-12-08T11:11:07.643Z,29.1
2018-12-08T11:11:55.743Z,29.3
2018-12-08T11:12:46.953Z,29.3
2018-12-08T11:13:35.696Z,29.4
2018-12-08T11:14:26.754Z,29.5
2018-12-08T11:15:16.799Z,29.4
2018-12-08T11:16:07.666Z,29.3
2018-12-08T11:16:57.261Z,29.1
2018-12-08T11:17:47.071Z,28.9
2018-12-08T11:18:36.830Z,28.8
2018-12-08T11:19:25.977Z,28.7
2018-12-08T11:20:16.778Z,28.5
2018-12-08T11:21:07.744Z,28.4
2018-12-08T11:21:56.964Z,28.2
2018-12-08T11:22:47.270Z,28.1
2018-12-08T11:23:39.404Z,27.6
2018-12-08T11:24:26.897Z,26.6
2018-12-08T11:25:17.179Z,26.1
2018-12-08T11:26:07.755Z,25.8
2018-12-08T11:26:58.386Z,25.5
2018-12-08T11:27:47.297Z,25.3
2018-12-08T11:28:38.457Z,25.2
2018-12-08T11:29:28.071Z,25.1
2018-12-08T11:30:18.589Z,24.9
2018-12-08T11:31:07.465Z,24.8
2018-12-08T11:31:58.746Z,24.7
2018-12-08T11:32:48.476Z,24.7
2018-12-08T11:33:38.861Z,24.9
2018-12-08T11:34:28.839Z,25.3
2018-12-08T11:35:18.346Z,26
2018-12-08T11:36:08.323Z,26.8
2018-12-08T11:36:59.823Z,26.9
2018-12-08T11:37:49.090Z,26.9
2018-12-08T11:38:38.981Z,27.1
2018-12-08T11:39:29.341Z,27.2
2018-12-08T11:40:19.046Z,27.4
2018-12-08T11:41:08.396Z,27.6
2018-12-08T11:41:58.158Z,27.8
2018-12-08T11:42:48.519Z,27.9
2018-12-08T11:43:39.286Z,28.1
2018-12-08T11:44:29.262Z,28.3
2018-12-08T11:45:19.233Z,28.4
2018-12-08T11:46:08.340Z,28.5
2018-12-08T11:46:59.187Z,28.6
2018-12-08T11:47:48.746Z,28.8
2018-12-08T11:48:37.805Z,28.9
2018-12-08T11:49:29.208Z,29
2018-12-08T11:50:18.973Z,29.1
2018-12-08T11:51:09.517Z,29.2
2018-12-08T11:51:59.383Z,29.3
2018-12-08T11:52:48.890Z,29.4
2018-12-08T11:53:38.892Z,29.5
2018-12-08T11:54:28.807Z,29.4
2018-12-08T11:55:19.746Z,29.3
2018-12-08T11:56:09.453Z,29.2
2018-12-08T11:56:59.733Z,29
2018-12-08T11:57:50.049Z,28.9
2018-12-08T11:58:40.274Z,28.8
2018-12-08T11:59:30.640Z,28.6
2018-12-08T12:00:20.125Z,28.4
2018-12-08T12:01:10.705Z,28.3
2018-12-08T12:02:00.197Z,28.1
2018-12-08T12:02:50.333Z,28
2018-12-08T12:03:40.069Z,26.9